sensor_id;sensor_type;location;lat;lon;timestamp;P1;durP1;ratioP1;P2;durP2;ratioP2
49123;SDS011;48506;48.202;16.274;2023-06-14T00:01:03;11.80;;;5.15;;
49123;SDS011;48506;48.202;16.274;2023-06-14T00:03:31;5.55;;;4.63;;
49123;SDS011;48506;48.202;16.274;2023-06-14T00:05:58;6.28;;;4.35;;
49123;SDS011;48506;48.202;16.274;2023-06-14T00:08:23;7.68;;;4.20;;
49123;SDS011;48506;48.202;16.274;2023-06-14T00:10:50;6.28;;;4.80;;
49123;SDS011;48506;48.202;16.274;2023-06-14T00:13:16;6.28;;;5.03;;
49123;SDS011;48506;48.202;16.274;2023-06-14T00:15:42;7.35;;;4.45;;
49123;SDS011;48506;48.202;16.274;2023-06-14T00:18:09;8.98;;;5.13;;
49123;SDS011;48506;48.202;16.274;2023-06-14T00:20:37;7.90;;;4.85;;
49123;SDS011;48506;48.202;16.274;2023-06-14T00:23:03;6.18;;;4.20;;
49123;SDS011;48506;48.202;16.274;2023-06-14T00:25:29;9.18;;;5.68;;
49123;SDS011;48506;48.202;16.274;2023-06-14T00:27:55;8.88;;;5.40;;
49123;SDS011;48506;48.202;16.274;2023-06-14T00:33:44;6.88;;;4.53;;
49123;SDS011;48506;48.202;16.274;2023-06-14T00:36:10;8.50;;;4.72;;
49123;SDS011;48506;48.202;16.274;2023-06-14T00:38:36;7.53;;;4.55;;
49123;SDS011;48506;48.202;16.274;2023-06-14T00:41:02;5.60;;;3.70;;
49123;SDS011;48506;48.202;16.274;2023-06-14T00:43:28;5.30;;;4.20;;
49123;SDS011;48506;48.202;16.274;2023-06-14T00:45:55;10.02;;;4.30;;
49123;SDS011;48506;48.202;16.274;2023-06-14T00:48:20;7.78;;;4.57;;
49123;SDS011;48506;48.202;16.274;2023-06-14T00:50:47;8.40;;;4.55;;
49123;SDS011;48506;48.202;16.274;2023-06-14T00:53:16;9.90;;;4.93;;
49123;SDS011;48506;48.202;16.274;2023-06-14T00:55:45;4.85;;;4.35;;
49123;SDS011;48506;48.202;16.274;2023-06-14T00:58:14;7.88;;;4.97;;
49123;SDS011;48506;48.202;16.274;2023-06-14T01:00:41;7.18;;;4.35;;
49123;SDS011;48506;48.202;16.274;2023-06-14T01:03:07;5.72;;;4.05;;
49123;SDS011;48506;48.202;16.274;2023-06-14T01:05:37;6.72;;;5.00;;
49123;SDS011;48506;48.202;16.274;2023-06-14T01:08:14;7.32;;;5.00;;
49123;SDS011;48506;48.202;16.274;2023-06-14T01:10:56;7.95;;;5.68;;
49123;SDS011;48506;48.202;16.274;2023-06-14T01:13:36;8.00;;;5.85;;
49123;SDS011;48506;48.202;16.274;2023-06-14T01:16:08;7.72;;;4.60;;
49123;SDS011;48506;48.202;16.274;2023-06-14T01:18:35;7.90;;;5.28;;
49123;SDS011;48506;48.202;16.274;2023-06-14T01:21:02;11.10;;;4.85;;
49123;SDS011;48506;48.202;16.274;2023-06-14T01:23:34;13.23;;;6.32;;
49123;SDS011;48506;48.202;16.274;2023-06-14T01:26:01;9.52;;;5.43;;
49123;SDS011;48506;48.202;16.274;2023-06-14T01:28:28;6.53;;;5.10;;
49123;SDS011;48506;48.202;16.274;2023-06-14T01:31:00;6.22;;;4.45;;
49123;SDS011;48506;48.202;16.274;2023-06-14T01:33:30;4.90;;;4.40;;
49123;SDS011;48506;48.202;16.274;2023-06-14T01:35:58;7.70;;;5.38;;
49123;SDS011;48506;48.202;16.274;2023-06-14T01:38:25;5.43;;;4.57;;
49123;SDS011;48506;48.202;16.274;2023-06-14T01:40:54;5.70;;;4.18;;
49123;SDS011;48506;48.202;16.274;2023-06-14T01:43:22;7.00;;;5.07;;
49123;SDS011;48506;48.202;16.274;2023-06-14T01:45:50;7.18;;;4.10;;
49123;SDS011;48506;48.202;16.274;2023-06-14T01:48:18;8.18;;;4.35;;
49123;SDS011;48506;48.202;16.274;2023-06-14T01:50:45;5.32;;;4.07;;
49123;SDS011;48506;48.202;16.274;2023-06-14T01:53:11;6.53;;;5.07;;
49123;SDS011;48506;48.202;16.274;2023-06-14T01:55:37;8.73;;;4.97;;
49123;SDS011;48506;48.202;16.274;2023-06-14T01:58:03;7.00;;;4.60;;
49123;SDS011;48506;48.202;16.274;2023-06-14T02:00:30;9.75;;;4.28;;
49123;SDS011;48506;48.202;16.274;2023-06-14T02:02:56;9.43;;;4.63;;
49123;SDS011;48506;48.202;16.274;2023-06-14T02:05:22;5.50;;;4.47;;
49123;SDS011;48506;48.202;16.274;2023-06-14T02:07:49;8.88;;;5.47;;
49123;SDS011;48506;48.202;16.274;2023-06-14T02:10:15;6.50;;;4.72;;
49123;SDS011;48506;48.202;16.274;2023-06-14T02:12:43;8.20;;;4.38;;
49123;SDS011;48506;48.202;16.274;2023-06-14T02:15:09;6.10;;;4.35;;
49123;SDS011;48506;48.202;16.274;2023-06-14T02:17:48;9.02;;;4.32;;
49123;SDS011;48506;48.202;16.274;2023-06-14T02:20:14;5.53;;;4.68;;
49123;SDS011;48506;48.202;16.274;2023-06-14T02:22:41;6.63;;;4.47;;
49123;SDS011;48506;48.202;16.274;2023-06-14T02:25:07;5.30;;;4.60;;
49123;SDS011;48506;48.202;16.274;2023-06-14T02:27:34;6.60;;;4.53;;
49123;SDS011;48506;48.202;16.274;2023-06-14T02:30:00;10.63;;;5.07;;
49123;SDS011;48506;48.202;16.274;2023-06-14T02:32:26;7.80;;;4.65;;
49123;SDS011;48506;48.202;16.274;2023-06-14T02:34:52;6.43;;;4.30;;
49123;SDS011;48506;48.202;16.274;2023-06-14T02:37:19;5.75;;;4.45;;
49123;SDS011;48506;48.202;16.274;2023-06-14T02:39:46;6.95;;;4.22;;
49123;SDS011;48506;48.202;16.274;2023-06-14T02:42:11;7.35;;;5.00;;
49123;SDS011;48506;48.202;16.274;2023-06-14T02:44:37;8.30;;;4.93;;
49123;SDS011;48506;48.202;16.274;2023-06-14T02:47:04;5.43;;;3.92;;
49123;SDS011;48506;48.202;16.274;2023-06-14T02:49:30;7.97;;;4.60;;
49123;SDS011;48506;48.202;16.274;2023-06-14T02:51:56;8.18;;;4.10;;
49123;SDS011;48506;48.202;16.274;2023-06-14T02:54:22;8.93;;;4.85;;
49123;SDS011;48506;48.202;16.274;2023-06-14T02:56:48;6.32;;;4.20;;
49123;SDS011;48506;48.202;16.274;2023-06-14T02:59:13;5.05;;;4.20;;
49123;SDS011;48506;48.202;16.274;2023-06-14T03:01:40;5.15;;;4.32;;
49123;SDS011;48506;48.202;16.274;2023-06-14T03:04:06;8.95;;;5.07;;
49123;SDS011;48506;48.202;16.274;2023-06-14T03:06:33;7.05;;;4.75;;
49123;SDS011;48506;48.202;16.274;2023-06-14T03:08:59;7.53;;;4.95;;
49123;SDS011;48506;48.202;16.274;2023-06-14T03:11:29;8.38;;;4.28;;
49123;SDS011;48506;48.202;16.274;2023-06-14T03:13:56;9.93;;;3.92;;
49123;SDS011;48506;48.202;16.274;2023-06-14T03:16:22;6.05;;;4.45;;
49123;SDS011;48506;48.202;16.274;2023-06-14T03:18:50;5.82;;;3.83;;
49123;SDS011;48506;48.202;16.274;2023-06-14T03:21:17;6.82;;;4.72;;
49123;SDS011;48506;48.202;16.274;2023-06-14T03:23:47;7.20;;;4.63;;
49123;SDS011;48506;48.202;16.274;2023-06-14T03:26:13;10.65;;;5.32;;
49123;SDS011;48506;48.202;16.274;2023-06-14T03:28:45;9.57;;;4.73;;
49123;SDS011;48506;48.202;16.274;2023-06-14T03:31:12;10.07;;;4.85;;
49123;SDS011;48506;48.202;16.274;2023-06-14T03:33:39;9.15;;;5.78;;
49123;SDS011;48506;48.202;16.274;2023-06-14T03:36:05;6.43;;;5.22;;
49123;SDS011;48506;48.202;16.274;2023-06-14T03:38:33;7.15;;;5.63;;
49123;SDS011;48506;48.202;16.274;2023-06-14T03:41:00;8.05;;;5.25;;
49123;SDS011;48506;48.202;16.274;2023-06-14T03:43:26;6.25;;;4.53;;
49123;SDS011;48506;48.202;16.274;2023-06-14T03:45:52;8.50;;;4.85;;
49123;SDS011;48506;48.202;16.274;2023-06-14T03:48:18;5.93;;;4.68;;
49123;SDS011;48506;48.202;16.274;2023-06-14T03:50:44;5.70;;;4.43;;
49123;SDS011;48506;48.202;16.274;2023-06-14T03:53:10;9.05;;;5.60;;
49123;SDS011;48506;48.202;16.274;2023-06-14T03:55:36;8.73;;;5.43;;
49123;SDS011;48506;48.202;16.274;2023-06-14T03:58:03;5.18;;;4.68;;
49123;SDS011;48506;48.202;16.274;2023-06-14T04:00:29;6.60;;;5.03;;
49123;SDS011;48506;48.202;16.274;2023-06-14T04:02:55;7.03;;;5.00;;
49123;SDS011;48506;48.202;16.274;2023-06-14T04:05:21;6.53;;;4.88;;
49123;SDS011;48506;48.202;16.274;2023-06-14T04:10:17;6.68;;;4.90;;
49123;SDS011;48506;48.202;16.274;2023-06-14T04:12:45;6.60;;;4.40;;
49123;SDS011;48506;48.202;16.274;2023-06-14T04:15:11;6.03;;;4.35;;
49123;SDS011;48506;48.202;16.274;2023-06-14T04:17:37;6.38;;;4.88;;
49123;SDS011;48506;48.202;16.274;2023-06-14T04:20:04;7.68;;;5.00;;
49123;SDS011;48506;48.202;16.274;2023-06-14T04:22:31;6.60;;;4.15;;
49123;SDS011;48506;48.202;16.274;2023-06-14T04:24:59;6.75;;;4.63;;
49123;SDS011;48506;48.202;16.274;2023-06-14T04:27:27;6.93;;;5.03;;
49123;SDS011;48506;48.202;16.274;2023-06-14T04:29:56;8.73;;;4.55;;
49123;SDS011;48506;48.202;16.274;2023-06-14T04:32:23;8.85;;;5.57;;
49123;SDS011;48506;48.202;16.274;2023-06-14T04:34:55;8.57;;;4.72;;
49123;SDS011;48506;48.202;16.274;2023-06-14T04:37:21;6.88;;;4.40;;
49123;SDS011;48506;48.202;16.274;2023-06-14T04:39:48;7.20;;;5.22;;
49123;SDS011;48506;48.202;16.274;2023-06-14T04:42:15;9.48;;;4.70;;
49123;SDS011;48506;48.202;16.274;2023-06-14T04:44:42;6.90;;;4.78;;
49123;SDS011;48506;48.202;16.274;2023-06-14T04:47:11;8.25;;;4.13;;
49123;SDS011;48506;48.202;16.274;2023-06-14T04:49:38;11.67;;;4.50;;
49123;SDS011;48506;48.202;16.274;2023-06-14T04:52:06;8.23;;;5.45;;
49123;SDS011;48506;48.202;16.274;2023-06-14T04:54:38;8.80;;;4.55;;
49123;SDS011;48506;48.202;16.274;2023-06-14T04:57:07;7.78;;;4.15;;
49123;SDS011;48506;48.202;16.274;2023-06-14T04:59:34;6.25;;;4.55;;
49123;SDS011;48506;48.202;16.274;2023-06-14T05:02:01;6.95;;;4.38;;
49123;SDS011;48506;48.202;16.274;2023-06-14T05:04:27;8.07;;;5.07;;
49123;SDS011;48506;48.202;16.274;2023-06-14T05:06:53;6.50;;;4.68;;
49123;SDS011;48506;48.202;16.274;2023-06-14T05:09:20;5.80;;;4.47;;
49123;SDS011;48506;48.202;16.274;2023-06-14T05:11:46;8.30;;;4.82;;
49123;SDS011;48506;48.202;16.274;2023-06-14T05:14:13;5.43;;;4.15;;
49123;SDS011;48506;48.202;16.274;2023-06-14T05:16:41;6.75;;;4.60;;
49123;SDS011;48506;48.202;16.274;2023-06-14T05:19:08;7.43;;;4.43;;
49123;SDS011;48506;48.202;16.274;2023-06-14T05:21:36;6.18;;;3.85;;
49123;SDS011;48506;48.202;16.274;2023-06-14T05:24:02;5.03;;;3.63;;
49123;SDS011;48506;48.202;16.274;2023-06-14T05:26:28;6.47;;;3.38;;
49123;SDS011;48506;48.202;16.274;2023-06-14T05:28:55;8.30;;;3.80;;
49123;SDS011;48506;48.202;16.274;2023-06-14T05:31:22;6.63;;;4.25;;
49123;SDS011;48506;48.202;16.274;2023-06-14T05:33:52;5.93;;;3.70;;
49123;SDS011;48506;48.202;16.274;2023-06-14T05:36:18;8.55;;;4.10;;
49123;SDS011;48506;48.202;16.274;2023-06-14T05:38:46;4.55;;;3.90;;
49123;SDS011;48506;48.202;16.274;2023-06-14T05:41:12;6.78;;;4.03;;
49123;SDS011;48506;48.202;16.274;2023-06-14T05:43:39;7.53;;;4.05;;
49123;SDS011;48506;48.202;16.274;2023-06-14T05:46:07;6.93;;;4.32;;
49123;SDS011;48506;48.202;16.274;2023-06-14T05:48:33;9.32;;;5.00;;
49123;SDS011;48506;48.202;16.274;2023-06-14T05:50:59;8.43;;;4.38;;
49123;SDS011;48506;48.202;16.274;2023-06-14T05:53:25;6.10;;;3.60;;
49123;SDS011;48506;48.202;16.274;2023-06-14T05:55:51;7.45;;;4.10;;
49123;SDS011;48506;48.202;16.274;2023-06-14T05:58:20;5.70;;;4.35;;
49123;SDS011;48506;48.202;16.274;2023-06-14T06:00:47;5.50;;;3.72;;
49123;SDS011;48506;48.202;16.274;2023-06-14T06:03:13;3.92;;;3.08;;
49123;SDS011;48506;48.202;16.274;2023-06-14T06:05:40;6.03;;;3.70;;
49123;SDS011;48506;48.202;16.274;2023-06-14T06:08:06;6.38;;;3.88;;
49123;SDS011;48506;48.202;16.274;2023-06-14T06:10:32;10.77;;;4.53;;
49123;SDS011;48506;48.202;16.274;2023-06-14T06:12:58;10.27;;;4.00;;
49123;SDS011;48506;48.202;16.274;2023-06-14T06:15:24;6.80;;;3.95;;
49123;SDS011;48506;48.202;16.274;2023-06-14T06:17:50;6.22;;;3.75;;
49123;SDS011;48506;48.202;16.274;2023-06-14T06:20:17;8.15;;;3.67;;
49123;SDS011;48506;48.202;16.274;2023-06-14T06:22:43;3.47;;;3.17;;
49123;SDS011;48506;48.202;16.274;2023-06-14T06:25:09;7.63;;;3.85;;
49123;SDS011;48506;48.202;16.274;2023-06-14T06:27:35;7.60;;;3.63;;
49123;SDS011;48506;48.202;16.274;2023-06-14T06:30:03;7.55;;;3.55;;
49123;SDS011;48506;48.202;16.274;2023-06-14T06:32:30;5.25;;;3.25;;
49123;SDS011;48506;48.202;16.274;2023-06-14T06:34:56;5.22;;;3.97;;
49123;SDS011;48506;48.202;16.274;2023-06-14T06:37:22;5.10;;;3.63;;
49123;SDS011;48506;48.202;16.274;2023-06-14T06:39:48;6.38;;;3.45;;
49123;SDS011;48506;48.202;16.274;2023-06-14T06:42:14;6.28;;;3.83;;
49123;SDS011;48506;48.202;16.274;2023-06-14T06:44:41;5.72;;;3.35;;
49123;SDS011;48506;48.202;16.274;2023-06-14T06:47:07;5.32;;;3.03;;
49123;SDS011;48506;48.202;16.274;2023-06-14T06:49:34;5.15;;;3.40;;
49123;SDS011;48506;48.202;16.274;2023-06-14T06:52:01;8.23;;;3.65;;
49123;SDS011;48506;48.202;16.274;2023-06-14T06:54:32;3.13;;;2.80;;
49123;SDS011;48506;48.202;16.274;2023-06-14T06:56:58;5.88;;;3.17;;
49123;SDS011;48506;48.202;16.274;2023-06-14T06:59:26;9.50;;;3.65;;
49123;SDS011;48506;48.202;16.274;2023-06-14T07:01:53;5.35;;;3.60;;
49123;SDS011;48506;48.202;16.274;2023-06-14T07:04:19;4.85;;;3.33;;
49123;SDS011;48506;48.202;16.274;2023-06-14T07:06:45;5.70;;;3.33;;
49123;SDS011;48506;48.202;16.274;2023-06-14T07:09:12;5.75;;;4.20;;
49123;SDS011;48506;48.202;16.274;2023-06-14T07:11:39;6.28;;;3.67;;
49123;SDS011;48506;48.202;16.274;2023-06-14T07:14:06;10.27;;;4.85;;
49123;SDS011;48506;48.202;16.274;2023-06-14T07:16:33;8.95;;;4.15;;
49123;SDS011;48506;48.202;16.274;2023-06-14T07:18:59;4.07;;;3.40;;
49123;SDS011;48506;48.202;16.274;2023-06-14T07:21:27;5.85;;;3.80;;
49123;SDS011;48506;48.202;16.274;2023-06-14T07:23:54;4.55;;;3.50;;
49123;SDS011;48506;48.202;16.274;2023-06-14T07:26:21;7.75;;;3.75;;
49123;SDS011;48506;48.202;16.274;2023-06-14T07:28:48;5.75;;;3.75;;
49123;SDS011;48506;48.202;16.274;2023-06-14T07:31:17;5.43;;;2.75;;
49123;SDS011;48506;48.202;16.274;2023-06-14T07:33:44;4.25;;;3.20;;
49123;SDS011;48506;48.202;16.274;2023-06-14T07:36:11;6.05;;;3.17;;
49123;SDS011;48506;48.202;16.274;2023-06-14T07:38:37;6.38;;;3.20;;
49123;SDS011;48506;48.202;16.274;2023-06-14T07:41:03;5.18;;;3.65;;
49123;SDS011;48506;48.202;16.274;2023-06-14T07:43:29;5.15;;;3.35;;
49123;SDS011;48506;48.202;16.274;2023-06-14T07:45:55;6.68;;;3.47;;
49123;SDS011;48506;48.202;16.274;2023-06-14T07:48:22;4.50;;;3.10;;
49123;SDS011;48506;48.202;16.274;2023-06-14T07:50:48;5.22;;;3.70;;
49123;SDS011;48506;48.202;16.274;2023-06-14T07:53:15;3.78;;;3.15;;
49123;SDS011;48506;48.202;16.274;2023-06-14T07:55:43;3.63;;;3.28;;
49123;SDS011;48506;48.202;16.274;2023-06-14T07:58:08;5.75;;;3.33;;
49123;SDS011;48506;48.202;16.274;2023-06-14T08:00:35;4.43;;;3.13;;
49123;SDS011;48506;48.202;16.274;2023-06-14T08:03:03;5.85;;;3.20;;
49123;SDS011;48506;48.202;16.274;2023-06-14T08:05:29;4.53;;;3.45;;
49123;SDS011;48506;48.202;16.274;2023-06-14T08:07:55;3.70;;;3.30;;
49123;SDS011;48506;48.202;16.274;2023-06-14T08:10:22;5.47;;;3.63;;
49123;SDS011;48506;48.202;16.274;2023-06-14T08:12:48;5.50;;;3.20;;
49123;SDS011;48506;48.202;16.274;2023-06-14T08:15:17;5.68;;;3.83;;
49123;SDS011;48506;48.202;16.274;2023-06-14T08:17:43;4.20;;;3.60;;
49123;SDS011;48506;48.202;16.274;2023-06-14T08:20:10;7.25;;;3.42;;
49123;SDS011;48506;48.202;16.274;2023-06-14T08:22:37;6.40;;;4.22;;
49123;SDS011;48506;48.202;16.274;2023-06-14T08:25:03;5.55;;;3.15;;
49123;SDS011;48506;48.202;16.274;2023-06-14T08:27:30;3.38;;;2.97;;
49123;SDS011;48506;48.202;16.274;2023-06-14T08:29:56;6.07;;;3.58;;
49123;SDS011;48506;48.202;16.274;2023-06-14T08:32:23;4.05;;;3.38;;
49123;SDS011;48506;48.202;16.274;2023-06-14T08:34:49;7.90;;;3.33;;
49123;SDS011;48506;48.202;16.274;2023-06-14T08:37:15;5.22;;;3.22;;
49123;SDS011;48506;48.202;16.274;2023-06-14T08:39:41;6.88;;;3.95;;
49123;SDS011;48506;48.202;16.274;2023-06-14T08:42:07;4.80;;;3.50;;
49123;SDS011;48506;48.202;16.274;2023-06-14T08:44:35;6.53;;;2.95;;
49123;SDS011;48506;48.202;16.274;2023-06-14T08:47:01;8.10;;;3.40;;
49123;SDS011;48506;48.202;16.274;2023-06-14T08:49:31;7.70;;;3.40;;
49123;SDS011;48506;48.202;16.274;2023-06-14T08:51:59;5.15;;;3.33;;
49123;SDS011;48506;48.202;16.274;2023-06-14T08:54:27;6.10;;;3.40;;
49123;SDS011;48506;48.202;16.274;2023-06-14T08:57:02;6.40;;;3.28;;
49123;SDS011;48506;48.202;16.274;2023-06-14T08:59:32;6.00;;;3.22;;
49123;SDS011;48506;48.202;16.274;2023-06-14T09:02:05;6.35;;;3.03;;
49123;SDS011;48506;48.202;16.274;2023-06-14T09:04:31;5.75;;;2.88;;
49123;SDS011;48506;48.202;16.274;2023-06-14T09:06:58;5.28;;;3.33;;
49123;SDS011;48506;48.202;16.274;2023-06-14T09:09:24;8.77;;;3.55;;
49123;SDS011;48506;48.202;16.274;2023-06-14T09:11:51;6.90;;;3.55;;
49123;SDS011;48506;48.202;16.274;2023-06-14T09:21:01;5.22;;;3.08;;
49123;SDS011;48506;48.202;16.274;2023-06-14T09:23:27;4.68;;;3.40;;
49123;SDS011;48506;48.202;16.274;2023-06-14T09:25:54;6.60;;;3.92;;
49123;SDS011;48506;48.202;16.274;2023-06-14T09:28:26;7.05;;;3.47;;
49123;SDS011;48506;48.202;16.274;2023-06-14T09:30:52;3.80;;;3.33;;
49123;SDS011;48506;48.202;16.274;2023-06-14T09:33:20;7.03;;;3.13;;
49123;SDS011;48506;48.202;16.274;2023-06-14T09:35:46;10.38;;;3.90;;
49123;SDS011;48506;48.202;16.274;2023-06-14T09:38:18;4.03;;;3.63;;
49123;SDS011;48506;48.202;16.274;2023-06-14T09:40:44;4.97;;;3.28;;
49123;SDS011;48506;48.202;16.274;2023-06-14T09:43:10;5.45;;;3.20;;
49123;SDS011;48506;48.202;16.274;2023-06-14T09:45:37;5.22;;;2.88;;
49123;SDS011;48506;48.202;16.274;2023-06-14T09:48:07;5.65;;;3.42;;
49123;SDS011;48506;48.202;16.274;2023-06-14T09:50:35;3.55;;;3.25;;
49123;SDS011;48506;48.202;16.274;2023-06-14T09:53:11;5.18;;;3.17;;
49123;SDS011;48506;48.202;16.274;2023-06-14T09:55:38;5.97;;;2.85;;
49123;SDS011;48506;48.202;16.274;2023-06-14T09:58:07;6.27;;;3.20;;
49123;SDS011;48506;48.202;16.274;2023-06-14T10:00:35;4.13;;;3.05;;
49123;SDS011;48506;48.202;16.274;2023-06-14T10:03:15;5.70;;;3.28;;
49123;SDS011;48506;48.202;16.274;2023-06-14T10:05:47;6.30;;;3.40;;
49123;SDS011;48506;48.202;16.274;2023-06-14T10:08:15;7.53;;;3.33;;
49123;SDS011;48506;48.202;16.274;2023-06-14T10:10:43;3.92;;;3.38;;
49123;SDS011;48506;48.202;16.274;2023-06-14T10:13:10;4.15;;;3.30;;
49123;SDS011;48506;48.202;16.274;2023-06-14T10:21:16;10.70;;;3.58;;
49123;SDS011;48506;48.202;16.274;2023-06-14T10:23:58;4.67;;;3.30;;
49123;SDS011;48506;48.202;16.274;2023-06-14T10:26:30;5.43;;;2.85;;
49123;SDS011;48506;48.202;16.274;2023-06-14T10:29:16;5.93;;;3.28;;
49123;SDS011;48506;48.202;16.274;2023-06-14T10:34:11;4.40;;;3.15;;
49123;SDS011;48506;48.202;16.274;2023-06-14T10:36:50;5.18;;;3.10;;
49123;SDS011;48506;48.202;16.274;2023-06-14T10:39:30;7.93;;;4.00;;
49123;SDS011;48506;48.202;16.274;2023-06-14T10:41:58;6.05;;;3.10;;
49123;SDS011;48506;48.202;16.274;2023-06-14T10:49:53;6.15;;;3.13;;
49123;SDS011;48506;48.202;16.274;2023-06-14T10:52:42;7.97;;;3.78;;
49123;SDS011;48506;48.202;16.274;2023-06-14T10:55:10;5.38;;;3.50;;
49123;SDS011;48506;48.202;16.274;2023-06-14T10:57:43;4.20;;;3.17;;
49123;SDS011;48506;48.202;16.274;2023-06-14T11:00:12;5.22;;;3.20;;
49123;SDS011;48506;48.202;16.274;2023-06-14T11:02:53;2.90;;;2.60;;
49123;SDS011;48506;48.202;16.274;2023-06-14T11:05:53;4.65;;;3.00;;
49123;SDS011;48506;48.202;16.274;2023-06-14T11:08:27;4.20;;;3.22;;
49123;SDS011;48506;48.202;16.274;2023-06-14T11:11:30;3.75;;;2.53;;
49123;SDS011;48506;48.202;16.274;2023-06-14T11:14:01;6.53;;;3.45;;
49123;SDS011;48506;48.202;16.274;2023-06-14T11:16:28;6.25;;;3.30;;
49123;SDS011;48506;48.202;16.274;2023-06-14T11:18:54;6.07;;;3.05;;
49123;SDS011;48506;48.202;16.274;2023-06-14T11:21:20;6.13;;;3.10;;
49123;SDS011;48506;48.202;16.274;2023-06-14T11:23:51;6.90;;;3.05;;
49123;SDS011;48506;48.202;16.274;2023-06-14T11:26:24;3.97;;;3.13;;
49123;SDS011;48506;48.202;16.274;2023-06-14T11:28:58;3.35;;;2.88;;
49123;SDS011;48506;48.202;16.274;2023-06-14T11:31:27;4.53;;;3.30;;
49123;SDS011;48506;48.202;16.274;2023-06-14T11:33:56;8.05;;;3.17;;
49123;SDS011;48506;48.202;16.274;2023-06-14T11:36:26;3.43;;;2.63;;
49123;SDS011;48506;48.202;16.274;2023-06-14T11:38:59;6.68;;;3.10;;
49123;SDS011;48506;48.202;16.274;2023-06-14T11:41:43;7.43;;;2.97;;
49123;SDS011;48506;48.202;16.274;2023-06-14T11:44:10;7.05;;;2.53;;
49123;SDS011;48506;48.202;16.274;2023-06-14T11:46:37;2.65;;;2.35;;
49123;SDS011;48506;48.202;16.274;2023-06-14T11:49:03;4.78;;;2.55;;
49123;SDS011;48506;48.202;16.274;2023-06-14T11:51:35;3.38;;;2.65;;
49123;SDS011;48506;48.202;16.274;2023-06-14T11:54:03;5.72;;;3.40;;
49123;SDS011;48506;48.202;16.274;2023-06-14T11:56:32;3.53;;;2.85;;
49123;SDS011;48506;48.202;16.274;2023-06-14T11:58:58;4.80;;;2.80;;
49123;SDS011;48506;48.202;16.274;2023-06-14T12:01:24;5.47;;;3.58;;
49123;SDS011;48506;48.202;16.274;2023-06-14T12:03:51;4.15;;;2.80;;
49123;SDS011;48506;48.202;16.274;2023-06-14T12:06:29;4.77;;;2.90;;
49123;SDS011;48506;48.202;16.274;2023-06-14T12:09:04;5.93;;;2.53;;
49123;SDS011;48506;48.202;16.274;2023-06-14T12:11:43;5.03;;;3.05;;
49123;SDS011;48506;48.202;16.274;2023-06-14T12:14:09;4.93;;;2.95;;
49123;SDS011;48506;48.202;16.274;2023-06-14T12:16:37;4.70;;;2.97;;
49123;SDS011;48506;48.202;16.274;2023-06-14T12:21:41;4.80;;;2.97;;
49123;SDS011;48506;48.202;16.274;2023-06-14T12:24:09;4.30;;;3.20;;
49123;SDS011;48506;48.202;16.274;2023-06-14T12:26:37;4.05;;;2.80;;
49123;SDS011;48506;48.202;16.274;2023-06-14T12:29:07;6.78;;;3.67;;
49123;SDS011;48506;48.202;16.274;2023-06-14T12:31:33;4.78;;;2.95;;
49123;SDS011;48506;48.202;16.274;2023-06-14T12:33:59;3.90;;;3.00;;
49123;SDS011;48506;48.202;16.274;2023-06-14T12:36:25;5.43;;;3.35;;
49123;SDS011;48506;48.202;16.274;2023-06-14T12:38:52;3.70;;;2.92;;
49123;SDS011;48506;48.202;16.274;2023-06-14T12:41:21;4.57;;;3.22;;
49123;SDS011;48506;48.202;16.274;2023-06-14T12:43:48;4.85;;;3.25;;
49123;SDS011;48506;48.202;16.274;2023-06-14T12:46:14;6.07;;;3.28;;
49123;SDS011;48506;48.202;16.274;2023-06-14T12:48:41;5.00;;;3.03;;
49123;SDS011;48506;48.202;16.274;2023-06-14T12:51:07;13.38;;;3.90;;
49123;SDS011;48506;48.202;16.274;2023-06-14T12:53:33;7.63;;;3.42;;
49123;SDS011;48506;48.202;16.274;2023-06-14T12:55:59;5.18;;;3.17;;
49123;SDS011;48506;48.202;16.274;2023-06-14T12:58:25;8.23;;;3.38;;
49123;SDS011;48506;48.202;16.274;2023-06-14T13:00:51;4.80;;;2.97;;
49123;SDS011;48506;48.202;16.274;2023-06-14T13:03:18;3.45;;;3.15;;
49123;SDS011;48506;48.202;16.274;2023-06-14T13:05:44;4.28;;;2.70;;
49123;SDS011;48506;48.202;16.274;2023-06-14T13:08:10;4.78;;;2.97;;
49123;SDS011;48506;48.202;16.274;2023-06-14T13:10:37;5.60;;;3.03;;
49123;SDS011;48506;48.202;16.274;2023-06-14T13:13:03;6.40;;;2.70;;
49123;SDS011;48506;48.202;16.274;2023-06-14T13:15:29;6.15;;;2.72;;
49123;SDS011;48506;48.202;16.274;2023-06-14T13:17:55;8.35;;;3.20;;
49123;SDS011;48506;48.202;16.274;2023-06-14T13:20:21;5.78;;;3.10;;
49123;SDS011;48506;48.202;16.274;2023-06-14T13:22:47;5.70;;;3.65;;
49123;SDS011;48506;48.202;16.274;2023-06-14T13:25:13;7.30;;;3.20;;
49123;SDS011;48506;48.202;16.274;2023-06-14T13:27:39;5.53;;;3.47;;
49123;SDS011;48506;48.202;16.274;2023-06-14T13:30:05;8.48;;;3.50;;
49123;SDS011;48506;48.202;16.274;2023-06-14T13:32:32;4.28;;;3.50;;
49123;SDS011;48506;48.202;16.274;2023-06-14T13:34:59;5.85;;;3.17;;
49123;SDS011;48506;48.202;16.274;2023-06-14T13:37:26;6.25;;;2.83;;
49123;SDS011;48506;48.202;16.274;2023-06-14T13:39:53;7.38;;;3.40;;
49123;SDS011;48506;48.202;16.274;2023-06-14T13:42:22;6.47;;;3.03;;
49123;SDS011;48506;48.202;16.274;2023-06-14T13:44:48;4.20;;;2.75;;
49123;SDS011;48506;48.202;16.274;2023-06-14T13:47:14;7.10;;;3.22;;
49123;SDS011;48506;48.202;16.274;2023-06-14T13:49:41;6.25;;;3.17;;
49123;SDS011;48506;48.202;16.274;2023-06-14T13:52:07;6.25;;;3.05;;
49123;SDS011;48506;48.202;16.274;2023-06-14T13:54:33;6.82;;;3.10;;
49123;SDS011;48506;48.202;16.274;2023-06-14T13:56:59;5.78;;;2.97;;
49123;SDS011;48506;48.202;16.274;2023-06-14T13:59:25;4.53;;;3.33;;
49123;SDS011;48506;48.202;16.274;2023-06-14T14:01:52;3.70;;;3.30;;
49123;SDS011;48506;48.202;16.274;2023-06-14T14:04:19;6.50;;;3.13;;
49123;SDS011;48506;48.202;16.274;2023-06-14T14:06:45;4.40;;;3.08;;
49123;SDS011;48506;48.202;16.274;2023-06-14T14:09:13;4.68;;;2.97;;
49123;SDS011;48506;48.202;16.274;2023-06-14T14:11:39;3.20;;;2.90;;
49123;SDS011;48506;48.202;16.274;2023-06-14T14:14:08;9.45;;;2.97;;
49123;SDS011;48506;48.202;16.274;2023-06-14T14:16:36;7.85;;;3.10;;
49123;SDS011;48506;48.202;16.274;2023-06-14T14:19:03;4.85;;;3.15;;
49123;SDS011;48506;48.202;16.274;2023-06-14T14:21:29;6.03;;;3.13;;
49123;SDS011;48506;48.202;16.274;2023-06-14T14:23:55;5.57;;;3.47;;
49123;SDS011;48506;48.202;16.274;2023-06-14T14:26:21;4.63;;;2.60;;
49123;SDS011;48506;48.202;16.274;2023-06-14T14:28:47;6.15;;;3.88;;
49123;SDS011;48506;48.202;16.274;2023-06-14T14:31:13;6.63;;;3.30;;
49123;SDS011;48506;48.202;16.274;2023-06-14T14:33:38;6.03;;;3.03;;
49123;SDS011;48506;48.202;16.274;2023-06-14T14:36:04;9.63;;;3.75;;
49123;SDS011;48506;48.202;16.274;2023-06-14T14:38:32;5.80;;;2.88;;
49123;SDS011;48506;48.202;16.274;2023-06-14T14:41:00;4.88;;;3.30;;
49123;SDS011;48506;48.202;16.274;2023-06-14T14:43:26;4.60;;;3.00;;
49123;SDS011;48506;48.202;16.274;2023-06-14T14:45:52;3.60;;;2.60;;
49123;SDS011;48506;48.202;16.274;2023-06-14T14:48:18;5.70;;;2.90;;
49123;SDS011;48506;48.202;16.274;2023-06-14T14:50:46;7.22;;;3.22;;
49123;SDS011;48506;48.202;16.274;2023-06-14T14:53:11;3.15;;;2.80;;
49123;SDS011;48506;48.202;16.274;2023-06-14T14:55:38;3.55;;;2.72;;
49123;SDS011;48506;48.202;16.274;2023-06-14T14:58:07;6.20;;;2.92;;
49123;SDS011;48506;48.202;16.274;2023-06-14T15:00:34;6.28;;;3.70;;
49123;SDS011;48506;48.202;16.274;2023-06-14T15:03:00;6.47;;;3.55;;
49123;SDS011;48506;48.202;16.274;2023-06-14T15:05:26;6.30;;;3.20;;